createdAt,value
2023-01-27T00:02:17.815Z,100487.59
2023-01-27T00:07:17.050Z,100481.53
2023-01-27T00:12:38.350Z,100475.72
2023-01-27T00:17:38.940Z,100494.94
2023-01-27T00:22:55.054Z,100492.44
2023-01-27T00:27:53.795Z,100481.72
2023-01-27T00:33:11.133Z,100464.84
2023-01-27T00:38:10.040Z,100456.69
2023-01-27T00:43:08.932Z,100443.38
2023-01-27T00:48:09.198Z,100424.69
2023-01-27T00:53:08.003Z,100408.47
2023-01-27T00:58:06.946Z,100412.31
2023-01-27T01:03:05.974Z,100426.22
2023-01-27T01:08:06.240Z,100438.59
2023-01-27T01:13:05.149Z,100444.38
2023-01-27T01:18:04.517Z,100460.84
2023-01-27T01:23:03.267Z,100444.09
2023-01-27T01:28:04.226Z,100443.94
2023-01-27T01:33:03.156Z,100441.84
2023-01-27T01:38:01.879Z,100440.44
2023-01-27T01:43:04.053Z,100436.19
2023-01-27T01:48:08.187Z,100437.22
2023-01-27T01:53:08.957Z,100415.22
2023-01-27T01:58:11.467Z,100412.69
2023-01-27T02:03:11.861Z,100400.31
2023-01-27T02:08:15.307Z,100395.91
2023-01-27T02:13:17.656Z,100397.03
2023-01-27T02:18:16.687Z,100402.75
2023-01-27T02:23:34.093Z,100410.19
2023-01-27T02:28:34.349Z,100400.41
2023-01-27T02:33:33.095Z,100399.03
2023-01-27T02:38:36.306Z,100394.41
2023-01-27T02:43:36.744Z,100384.50
2023-01-27T02:48:35.651Z,100376.06
2023-01-27T02:53:35.955Z,100375.47
2023-01-27T02:58:36.200Z,100368.16
2023-01-27T03:03:47.365Z,100341.88
2023-01-27T03:08:50.462Z,100323.63
2023-01-27T03:13:50.720Z,100333.28
2023-01-27T03:18:53.890Z,100329.53
2023-01-27T03:23:53.111Z,100327.81
2023-01-27T03:29:10.078Z,100302.13
2023-01-27T03:34:12.663Z,100295.69
2023-01-27T03:39:34.994Z,100316.00
2023-01-27T03:44:53.612Z,100322.06
2023-01-27T03:49:52.449Z,100307.16
2023-01-27T03:54:51.212Z,100309.25
2023-01-27T03:59:51.455Z,100329.13
2023-01-27T04:05:08.696Z,100322.88
2023-01-27T04:10:08.799Z,100317.38
2023-01-27T04:15:10.614Z,100316.16
2023-01-27T04:20:11.367Z,100339.91
2023-01-27T04:25:13.036Z,100351.03
2023-01-27T04:30:14.704Z,100343.22
2023-01-27T04:35:13.800Z,100353.47
2023-01-27T04:40:14.099Z,100363.31
2023-01-27T04:45:14.724Z,100348.91
2023-01-27T04:50:13.603Z,100352.25
2023-01-27T04:55:13.147Z,100343.84
2023-01-27T05:00:16.641Z,100348.91
2023-01-27T05:05:16.521Z,100365.53
2023-01-27T05:10:15.438Z,100374.84
2023-01-27T05:15:16.272Z,100382.41
2023-01-27T05:20:15.308Z,100376.28
2023-01-27T05:25:14.529Z,100362.38
2023-01-27T05:30:15.817Z,100366.50
2023-01-27T05:35:15.212Z,100375.22
2023-01-27T05:40:20.441Z,100364.00
2023-01-27T05:45:21.058Z,100344.22
2023-01-27T05:50:20.427Z,100337.59
2023-01-27T05:55:19.638Z,100354.72
2023-01-27T06:00:21.315Z,100355.34
2023-01-27T06:05:20.224Z,100343.41
2023-01-27T06:10:19.342Z,100351.44
2023-01-27T06:15:18.195Z,100356.75
2023-01-27T06:20:18.829Z,100366.16
2023-01-27T06:25:17.732Z,100365.56
2023-01-27T06:30:16.872Z,100360.50
2023-01-27T06:35:15.991Z,100368.16
2023-01-27T06:40:16.335Z,100366.19
2023-01-27T06:45:15.406Z,100357.06
2023-01-27T06:50:14.455Z,100348.69
2023-01-27T06:55:15.326Z,100335.13
2023-01-27T07:00:16.038Z,100334.44
2023-01-27T07:05:17.985Z,100336.16
2023-01-27T07:10:18.614Z,100328.50
2023-01-27T07:15:17.703Z,100328.97
2023-01-27T07:20:16.745Z,100347.78
2023-01-27T07:25:15.626Z,100349.44
2023-01-27T07:30:16.647Z,100355.84
2023-01-27T07:35:15.525Z,100346.28
2023-01-27T07:40:15.227Z,100344.41
2023-01-27T07:45:15.891Z,100350.25
2023-01-27T07:50:15.566Z,100353.41
2023-01-27T07:55:14.797Z,100354.34
2023-01-27T08:00:16.832Z,100356.25
2023-01-27T08:05:15.824Z,100351.28
2023-01-27T08:10:15.295Z,100348.66
2023-01-27T08:15:50.290Z,100345.44
2023-01-27T08:20:52.983Z,100348.94
2023-01-27T08:25:52.654Z,100345.09
2023-01-27T08:30:53.591Z,100329.44
2023-01-27T08:35:52.643Z,100331.03
2023-01-27T08:40:51.432Z,100308.44
2023-01-27T08:45:55.694Z,100299.38
2023-01-27T08:50:54.524Z,100292.91
2023-01-27T08:55:57.527Z,100305.97
2023-01-27T09:01:01.844Z,100297.66
2023-01-27T09:06:01.254Z,100288.00
2023-01-27T09:11:00.103Z,100288.69
2023-01-27T09:16:01.325Z,100271.22
2023-01-27T09:21:04.835Z,100269.97
2023-01-27T09:26:03.690Z,100267.50
2023-01-27T09:31:04.052Z,100276.56
2023-01-27T09:36:06.484Z,100276.47
2023-01-27T09:41:23.470Z,100282.63
2023-01-27T09:46:47.295Z,100280.59
2023-01-27T09:51:59.323Z,100269.41
2023-01-27T09:57:06.933Z,100255.38
2023-01-27T10:02:16.639Z,100255.69
2023-01-27T10:07:33.152Z,100240.41
2023-01-27T10:12:59.542Z,100244.69
2023-01-27T10:18:09.771Z,100231.66
2023-01-27T10:23:20.925Z,100219.72
2023-01-27T10:28:24.002Z,100223.97
2023-01-27T10:33:32.508Z,100215.75
2023-01-27T10:38:40.938Z,100210.66
2023-01-27T10:43:50.485Z,100204.53
2023-01-27T10:48:53.114Z,100184.06
2023-01-27T10:53:58.601Z,100176.44
2023-01-27T10:59:04.990Z,100174.16
2023-01-27T11:04:11.770Z,100170.72
2023-01-27T11:09:23.820Z,100172.69
2023-01-27T11:14:28.866Z,100164.34
2023-01-27T11:19:41.727Z,100161.94
2023-01-27T11:24:46.430Z,100155.31
2023-01-27T11:29:55.154Z,100147.66
2023-01-27T11:35:06.848Z,100138.50
2023-01-27T11:40:15.787Z,100140.28
2023-01-27T11:45:19.707Z,100144.13
2023-01-27T11:50:24.866Z,100146.81
2023-01-27T11:55:26.911Z,100159.19
2023-01-27T12:00:27.978Z,100150.75
2023-01-27T12:05:32.358Z,100150.84
2023-01-27T12:10:34.378Z,100154.47
2023-01-27T12:15:33.543Z,100159.19
2023-01-27T12:20:38.391Z,100176.56
2023-01-27T12:25:46.531Z,100176.00
2023-01-27T12:30:48.333Z,100170.81
2023-01-27T12:35:51.364Z,100181.69
2023-01-27T12:40:56.597Z,100186.78
2023-01-27T12:46:07.152Z,100183.09
2023-01-27T12:51:15.257Z,100188.13
2023-01-27T12:56:16.112Z,100186.69
2023-01-27T13:01:37.898Z,100198.19
2023-01-27T13:06:43.734Z,100202.44
2023-01-27T13:11:42.731Z,100209.78
2023-01-27T13:16:41.674Z,100200.13
2023-01-27T13:21:42.333Z,100205.59
2023-01-27T13:26:42.507Z,100214.13
2023-01-27T13:31:47.282Z,100218.59
2023-01-27T13:36:53.761Z,100217.16
2023-01-27T13:41:57.170Z,100210.25
2023-01-27T13:47:02.003Z,100209.03
2023-01-27T13:52:02.906Z,100209.16
2023-01-27T13:57:27.613Z,100215.34
2023-01-27T14:02:45.065Z,100217.38
2023-01-27T14:07:55.196Z,100221.13
2023-01-27T14:13:08.691Z,100226.84
2023-01-27T14:18:16.145Z,100223.88
2023-01-27T14:23:35.984Z,100238.22
2023-01-27T14:28:43.652Z,100232.88
2023-01-27T14:34:00.184Z,100226.31
2023-01-27T14:39:11.166Z,100233.66
2023-01-27T14:44:19.455Z,100230.56
2023-01-27T14:49:27.277Z,100229.19
2023-01-27T14:54:50.947Z,100230.00
2023-01-27T15:00:01.143Z,100239.56
2023-01-27T15:05:12.068Z,100239.16
2023-01-27T15:10:23.147Z,100231.66
2023-01-27T15:16:00.316Z,100248.34
2023-01-27T15:21:12.260Z,100249.34
2023-01-27T15:26:15.842Z,100249.25
2023-01-27T15:31:31.158Z,100258.88
2023-01-27T15:36:36.092Z,100261.31
2023-01-27T15:41:37.272Z,100252.94
2023-01-27T15:46:38.881Z,100258.34
2023-01-27T15:51:38.634Z,100264.56
2023-01-27T15:56:48.273Z,100274.69
2023-01-27T16:01:49.201Z,100275.28
2023-01-27T16:06:52.009Z,100275.03
2023-01-27T16:12:02.805Z,100275.06
2023-01-27T16:17:11.269Z,100281.81
2023-01-27T16:22:19.719Z,100287.47
2023-01-27T16:27:32.237Z,100286.91
2023-01-27T16:32:38.417Z,100282.94
2023-01-27T16:37:40.480Z,100289.47
2023-01-27T16:42:48.594Z,100296.47
2023-01-27T16:47:53.350Z,100312.19
2023-01-27T16:52:52.285Z,100321.72
2023-01-27T16:57:54.392Z,100323.88
2023-01-27T17:02:54.991Z,100331.31
2023-01-27T17:08:14.305Z,100336.53
2023-01-27T17:13:29.829Z,100331.81
2023-01-27T17:18:33.145Z,100326.13
2023-01-27T17:23:36.557Z,100336.06
2023-01-27T17:28:37.709Z,100336.59
2023-01-27T17:33:39.919Z,100343.84
2023-01-27T17:38:46.891Z,100343.41
2023-01-27T17:43:47.327Z,100353.31
2023-01-27T17:48:52.388Z,100352.75
2023-01-27T17:53:53.438Z,100359.38
2023-01-27T17:58:57.596Z,100358.38
2023-01-27T18:03:59.238Z,100357.94
2023-01-27T18:09:01.895Z,100359.31
2023-01-27T18:14:10.871Z,100368.09
2023-01-27T18:19:22.335Z,100369.47
2023-01-27T18:24:25.645Z,100367.34
2023-01-27T18:29:32.009Z,100370.91
2023-01-27T18:34:32.707Z,100379.72
2023-01-27T18:39:36.930Z,100384.91
2023-01-27T18:44:37.349Z,100384.78
2023-01-27T18:49:37.769Z,100388.47
2023-01-27T18:54:38.287Z,100396.47
2023-01-27T18:59:39.946Z,100393.94
2023-01-27T19:04:39.218Z,100392.44
2023-01-27T19:09:39.195Z,100391.34
2023-01-27T19:14:41.620Z,100395.97
2023-01-27T19:19:40.582Z,100390.81
2023-01-27T19:24:39.311Z,100398.00
2023-01-27T19:29:39.798Z,100401.53
2023-01-27T19:34:39.799Z,100409.31
2023-01-27T19:39:38.770Z,100413.19
2023-01-27T19:44:37.550Z,100419.38
2023-01-27T19:49:37.741Z,100430.56
2023-01-27T19:54:37.406Z,100431.34
2023-01-27T19:59:36.998Z,100438.09
2023-01-27T20:04:38.696Z,100427.59
2023-01-27T20:09:37.745Z,100435.19
2023-01-27T20:14:36.495Z,100439.56
2023-01-27T20:19:35.293Z,100444.69
2023-01-27T20:24:38.068Z,100452.25
2023-01-27T20:29:37.412Z,100456.88
2023-01-27T20:34:36.218Z,100467.94
2023-01-27T20:39:36.558Z,100467.88
2023-01-27T20:44:35.692Z,100472.16
2023-01-27T20:49:36.196Z,100482.00
2023-01-27T20:54:36.511Z,100481.75
2023-01-27T20:59:35.262Z,100489.88
2023-01-27T21:04:34.130Z,100488.84
2023-01-27T21:09:33.081Z,100490.88
2023-01-27T21:14:34.091Z,100500.16
2023-01-27T21:19:33.286Z,100507.78
2023-01-27T21:24:32.710Z,100504.59
2023-01-27T21:29:32.923Z,100516.38
2023-01-27T21:34:31.827Z,100512.91
2023-01-27T21:39:30.520Z,100513.91
2023-01-27T21:44:47.870Z,100523.97
2023-01-27T21:50:04.546Z,100516.44
2023-01-27T21:55:04.770Z,100521.59
2023-01-27T22:00:03.734Z,100531.13
2023-01-27T22:05:13.239Z,100538.78
2023-01-27T22:10:16.766Z,100538.84
2023-01-27T22:15:16.963Z,100549.78
2023-01-27T22:20:18.085Z,100543.72
2023-01-27T22:25:17.810Z,100542.00
2023-01-27T22:30:19.532Z,100547.38
2023-01-27T22:35:19.961Z,100552.47
2023-01-27T22:40:19.236Z,100555.16
2023-01-27T22:45:18.659Z,100559.91
2023-01-27T22:50:19.823Z,100559.28
2023-01-27T22:55:20.399Z,100562.03
2023-01-27T23:00:19.474Z,100567.38
2023-01-27T23:05:19.684Z,100561.97
2023-01-27T23:10:19.030Z,100556.47
2023-01-27T23:15:18.186Z,100563.47
2023-01-27T23:20:17.167Z,100566.66
2023-01-27T23:25:17.717Z,100567.50
2023-01-27T23:30:16.729Z,100565.88
2023-01-27T23:35:16.419Z,100568.69
2023-01-27T23:40:15.614Z,100575.59
2023-01-27T23:45:16.246Z,100568.88
2023-01-27T23:50:15.486Z,100577.41
2023-01-27T23:55:14.939Z,100579.13
